sensor_id;sensor_type;location;lat;lon;timestamp;P1;durP1;ratioP1;P2;durP2;ratioP2
57824;SDS011;43912;44.188;21.094;2022-10-16T00:02:03;12.55;;;8.02;;
57824;SDS011;43912;44.188;21.094;2022-10-16T00:04:29;11.05;;;7.50;;
57824;SDS011;43912;44.188;21.094;2022-10-16T00:06:55;12.73;;;7.97;;
57824;SDS011;43912;44.188;21.094;2022-10-16T00:09:21;11.15;;;6.70;;
57824;SDS011;43912;44.188;21.094;2022-10-16T00:11:47;13.95;;;8.20;;
57824;SDS011;43912;44.188;21.094;2022-10-16T00:14:14;13.27;;;8.43;;
57824;SDS011;43912;44.188;21.094;2022-10-16T00:16:40;12.82;;;8.35;;
57824;SDS011;43912;44.188;21.094;2022-10-16T00:19:06;16.60;;;8.63;;
57824;SDS011;43912;44.188;21.094;2022-10-16T00:21:33;15.95;;;8.30;;
57824;SDS011;43912;44.188;21.094;2022-10-16T00:24:01;14.70;;;8.93;;
57824;SDS011;43912;44.188;21.094;2022-10-16T00:26:28;12.93;;;8.80;;
57824;SDS011;43912;44.188;21.094;2022-10-16T00:28:54;16.42;;;9.45;;
57824;SDS011;43912;44.188;21.094;2022-10-16T00:31:21;17.10;;;9.10;;
57824;SDS011;43912;44.188;21.094;2022-10-16T00:33:47;15.45;;;8.65;;
57824;SDS011;43912;44.188;21.094;2022-10-16T00:36:15;16.10;;;8.30;;
57824;SDS011;43912;44.188;21.094;2022-10-16T00:38:41;10.45;;;7.05;;
57824;SDS011;43912;44.188;21.094;2022-10-16T00:41:09;12.48;;;7.65;;
57824;SDS011;43912;44.188;21.094;2022-10-16T00:46:03;13.05;;;7.57;;
57824;SDS011;43912;44.188;21.094;2022-10-16T00:48:30;15.98;;;7.85;;
57824;SDS011;43912;44.188;21.094;2022-10-16T00:50:56;14.40;;;7.72;;
57824;SDS011;43912;44.188;21.094;2022-10-16T00:53:23;14.00;;;7.15;;
57824;SDS011;43912;44.188;21.094;2022-10-16T00:55:50;14.63;;;7.90;;
57824;SDS011;43912;44.188;21.094;2022-10-16T00:58:16;11.32;;;7.68;;
57824;SDS011;43912;44.188;21.094;2022-10-16T01:00:42;11.77;;;7.72;;
57824;SDS011;43912;44.188;21.094;2022-10-16T01:03:25;13.35;;;8.05;;
57824;SDS011;43912;44.188;21.094;2022-10-16T01:14:30;17.33;;;9.63;;
57824;SDS011;43912;44.188;21.094;2022-10-16T01:17:09;13.60;;;9.85;;
57824;SDS011;43912;44.188;21.094;2022-10-16T01:22:09;15.57;;;9.95;;
57824;SDS011;43912;44.188;21.094;2022-10-16T01:37:36;15.00;;;9.88;;
57824;SDS011;43912;44.188;21.094;2022-10-16T01:40:05;16.92;;;9.13;;
57824;SDS011;43912;44.188;21.094;2022-10-16T01:42:34;13.57;;;9.90;;
57824;SDS011;43912;44.188;21.094;2022-10-16T01:45:00;13.60;;;9.32;;
57824;SDS011;43912;44.188;21.094;2022-10-16T01:47:28;17.05;;;9.77;;
57824;SDS011;43912;44.188;21.094;2022-10-16T01:49:55;16.13;;;10.23;;
57824;SDS011;43912;44.188;21.094;2022-10-16T01:52:24;20.60;;;9.95;;
57824;SDS011;43912;44.188;21.094;2022-10-16T01:54:52;16.63;;;10.10;;
57824;SDS011;43912;44.188;21.094;2022-10-16T01:57:19;19.08;;;10.15;;
57824;SDS011;43912;44.188;21.094;2022-10-16T01:59:47;16.90;;;11.00;;
57824;SDS011;43912;44.188;21.094;2022-10-16T02:02:14;12.85;;;10.00;;
57824;SDS011;43912;44.188;21.094;2022-10-16T02:04:45;14.35;;;9.95;;
57824;SDS011;43912;44.188;21.094;2022-10-16T02:07:11;12.95;;;8.80;;
57824;SDS011;43912;44.188;21.094;2022-10-16T02:09:38;15.95;;;8.73;;
57824;SDS011;43912;44.188;21.094;2022-10-16T02:12:15;12.43;;;9.13;;
57824;SDS011;43912;44.188;21.094;2022-10-16T02:14:43;11.30;;;9.00;;
57824;SDS011;43912;44.188;21.094;2022-10-16T02:17:12;15.80;;;9.32;;
57824;SDS011;43912;44.188;21.094;2022-10-16T02:19:39;13.45;;;9.05;;
57824;SDS011;43912;44.188;21.094;2022-10-16T02:22:05;13.88;;;8.65;;
57824;SDS011;43912;44.188;21.094;2022-10-16T02:24:33;11.82;;;8.38;;
57824;SDS011;43912;44.188;21.094;2022-10-16T02:27:03;12.23;;;8.38;;
57824;SDS011;43912;44.188;21.094;2022-10-16T02:29:33;14.68;;;8.98;;
57824;SDS011;43912;44.188;21.094;2022-10-16T02:32:01;13.88;;;8.50;;
57824;SDS011;43912;44.188;21.094;2022-10-16T02:34:28;12.68;;;8.88;;
57824;SDS011;43912;44.188;21.094;2022-10-16T02:36:56;13.25;;;8.20;;
57824;SDS011;43912;44.188;21.094;2022-10-16T02:39:22;14.45;;;8.63;;
57824;SDS011;43912;44.188;21.094;2022-10-16T02:41:49;13.18;;;8.60;;
57824;SDS011;43912;44.188;21.094;2022-10-16T02:44:15;12.20;;;8.85;;
57824;SDS011;43912;44.188;21.094;2022-10-16T02:46:41;12.68;;;8.20;;
57824;SDS011;43912;44.188;21.094;2022-10-16T02:49:07;16.67;;;9.45;;
57824;SDS011;43912;44.188;21.094;2022-10-16T02:51:33;13.18;;;8.45;;
57824;SDS011;43912;44.188;21.094;2022-10-16T02:53:59;15.35;;;8.60;;
57824;SDS011;43912;44.188;21.094;2022-10-16T02:56:25;13.20;;;8.07;;
57824;SDS011;43912;44.188;21.094;2022-10-16T02:58:51;15.13;;;9.00;;
57824;SDS011;43912;44.188;21.094;2022-10-16T03:01:17;15.63;;;8.73;;
57824;SDS011;43912;44.188;21.094;2022-10-16T03:03:43;23.08;;;8.85;;
57824;SDS011;43912;44.188;21.094;2022-10-16T03:06:10;44.53;;;34.33;;
57824;SDS011;43912;44.188;21.094;2022-10-16T03:08:37;14.95;;;9.30;;
57824;SDS011;43912;44.188;21.094;2022-10-16T03:11:03;14.27;;;8.85;;
57824;SDS011;43912;44.188;21.094;2022-10-16T03:13:29;17.33;;;9.38;;
57824;SDS011;43912;44.188;21.094;2022-10-16T03:15:55;14.05;;;9.57;;
57824;SDS011;43912;44.188;21.094;2022-10-16T03:18:21;14.07;;;10.13;;
57824;SDS011;43912;44.188;21.094;2022-10-16T03:20:47;15.27;;;9.90;;
57824;SDS011;43912;44.188;21.094;2022-10-16T03:23:13;16.48;;;10.70;;
57824;SDS011;43912;44.188;21.094;2022-10-16T03:25:39;19.42;;;12.55;;
57824;SDS011;43912;44.188;21.094;2022-10-16T03:28:05;12.68;;;8.80;;
57824;SDS011;43912;44.188;21.094;2022-10-16T03:30:32;12.80;;;8.10;;
57824;SDS011;43912;44.188;21.094;2022-10-16T03:32:58;12.25;;;7.55;;
57824;SDS011;43912;44.188;21.094;2022-10-16T03:35:24;12.98;;;7.53;;
57824;SDS011;43912;44.188;21.094;2022-10-16T03:37:50;12.48;;;7.95;;
57824;SDS011;43912;44.188;21.094;2022-10-16T03:40:16;14.35;;;7.10;;
57824;SDS011;43912;44.188;21.094;2022-10-16T03:42:43;13.23;;;8.35;;
57824;SDS011;43912;44.188;21.094;2022-10-16T03:45:09;16.83;;;8.40;;
57824;SDS011;43912;44.188;21.094;2022-10-16T03:47:35;11.90;;;8.82;;
57824;SDS011;43912;44.188;21.094;2022-10-16T03:50:02;15.80;;;9.23;;
57824;SDS011;43912;44.188;21.094;2022-10-16T03:52:28;14.68;;;8.98;;
57824;SDS011;43912;44.188;21.094;2022-10-16T03:54:54;12.57;;;8.43;;
57824;SDS011;43912;44.188;21.094;2022-10-16T03:57:20;11.50;;;8.27;;
57824;SDS011;43912;44.188;21.094;2022-10-16T03:59:46;14.48;;;7.53;;
57824;SDS011;43912;44.188;21.094;2022-10-16T04:02:13;11.63;;;6.85;;
57824;SDS011;43912;44.188;21.094;2022-10-16T04:04:39;11.23;;;6.90;;
57824;SDS011;43912;44.188;21.094;2022-10-16T04:07:05;21.92;;;19.63;;
57824;SDS011;43912;44.188;21.094;2022-10-16T04:09:31;12.85;;;8.45;;
57824;SDS011;43912;44.188;21.094;2022-10-16T04:11:57;12.05;;;7.15;;
57824;SDS011;43912;44.188;21.094;2022-10-16T04:14:23;12.98;;;7.78;;
57824;SDS011;43912;44.188;21.094;2022-10-16T04:16:49;19.23;;;7.60;;
57824;SDS011;43912;44.188;21.094;2022-10-16T04:19:15;14.60;;;6.90;;
57824;SDS011;43912;44.188;21.094;2022-10-16T04:21:41;12.23;;;7.28;;
57824;SDS011;43912;44.188;21.094;2022-10-16T04:24:07;13.05;;;6.50;;
57824;SDS011;43912;44.188;21.094;2022-10-16T04:26:33;14.40;;;7.30;;
57824;SDS011;43912;44.188;21.094;2022-10-16T04:28:59;11.85;;;6.43;;
57824;SDS011;43912;44.188;21.094;2022-10-16T04:31:26;11.30;;;6.70;;
57824;SDS011;43912;44.188;21.094;2022-10-16T04:33:52;11.50;;;6.50;;
57824;SDS011;43912;44.188;21.094;2022-10-16T04:36:18;10.93;;;6.93;;
57824;SDS011;43912;44.188;21.094;2022-10-16T04:38:44;15.70;;;7.15;;
57824;SDS011;43912;44.188;21.094;2022-10-16T04:41:10;15.05;;;8.52;;
57824;SDS011;43912;44.188;21.094;2022-10-16T04:43:36;14.73;;;8.68;;
57824;SDS011;43912;44.188;21.094;2022-10-16T04:46:02;18.55;;;9.00;;
57824;SDS011;43912;44.188;21.094;2022-10-16T04:48:29;14.18;;;9.02;;
57824;SDS011;43912;44.188;21.094;2022-10-16T04:50:55;15.20;;;9.60;;
57824;SDS011;43912;44.188;21.094;2022-10-16T04:53:22;16.40;;;11.18;;
57824;SDS011;43912;44.188;21.094;2022-10-16T04:55:48;15.10;;;9.80;;
57824;SDS011;43912;44.188;21.094;2022-10-16T04:58:14;18.15;;;10.23;;
57824;SDS011;43912;44.188;21.094;2022-10-16T05:00:40;13.13;;;7.22;;
57824;SDS011;43912;44.188;21.094;2022-10-16T05:03:06;12.93;;;9.38;;
57824;SDS011;43912;44.188;21.094;2022-10-16T05:05:34;14.73;;;8.10;;
57824;SDS011;43912;44.188;21.094;2022-10-16T05:08:00;14.90;;;7.82;;
57824;SDS011;43912;44.188;21.094;2022-10-16T05:10:26;12.63;;;7.53;;
57824;SDS011;43912;44.188;21.094;2022-10-16T05:12:53;15.05;;;7.70;;
57824;SDS011;43912;44.188;21.094;2022-10-16T05:15:19;18.75;;;8.63;;
57824;SDS011;43912;44.188;21.094;2022-10-16T05:17:45;15.07;;;8.60;;
57824;SDS011;43912;44.188;21.094;2022-10-16T05:20:11;12.60;;;7.38;;
57824;SDS011;43912;44.188;21.094;2022-10-16T05:22:37;13.32;;;7.13;;
57824;SDS011;43912;44.188;21.094;2022-10-16T05:25:04;14.65;;;7.32;;
57824;SDS011;43912;44.188;21.094;2022-10-16T05:27:30;12.05;;;6.78;;
57824;SDS011;43912;44.188;21.094;2022-10-16T05:29:56;11.07;;;5.63;;
57824;SDS011;43912;44.188;21.094;2022-10-16T05:32:22;10.32;;;7.05;;
57824;SDS011;43912;44.188;21.094;2022-10-16T05:34:48;29.75;;;19.38;;
57824;SDS011;43912;44.188;21.094;2022-10-16T05:37:14;16.55;;;8.20;;
57824;SDS011;43912;44.188;21.094;2022-10-16T05:39:40;21.17;;;7.95;;
57824;SDS011;43912;44.188;21.094;2022-10-16T05:42:06;15.43;;;6.43;;
57824;SDS011;43912;44.188;21.094;2022-10-16T05:44:33;13.40;;;6.38;;
57824;SDS011;43912;44.188;21.094;2022-10-16T05:46:59;10.23;;;6.00;;
57824;SDS011;43912;44.188;21.094;2022-10-16T05:49:25;9.75;;;5.75;;
57824;SDS011;43912;44.188;21.094;2022-10-16T05:51:51;9.18;;;6.07;;
57824;SDS011;43912;44.188;21.094;2022-10-16T05:54:17;12.85;;;7.97;;
57824;SDS011;43912;44.188;21.094;2022-10-16T05:56:43;14.63;;;7.40;;
57824;SDS011;43912;44.188;21.094;2022-10-16T05:59:09;16.83;;;10.38;;
57824;SDS011;43912;44.188;21.094;2022-10-16T06:01:35;15.15;;;9.90;;
57824;SDS011;43912;44.188;21.094;2022-10-16T06:04:01;13.07;;;8.95;;
57824;SDS011;43912;44.188;21.094;2022-10-16T06:06:28;18.15;;;12.40;;
57824;SDS011;43912;44.188;21.094;2022-10-16T06:08:55;16.67;;;10.57;;
57824;SDS011;43912;44.188;21.094;2022-10-16T06:11:23;16.85;;;11.02;;
57824;SDS011;43912;44.188;21.094;2022-10-16T06:13:50;14.80;;;8.93;;
57824;SDS011;43912;44.188;21.094;2022-10-16T06:16:17;21.10;;;18.63;;
57824;SDS011;43912;44.188;21.094;2022-10-16T06:18:43;18.73;;;10.90;;
57824;SDS011;43912;44.188;21.094;2022-10-16T06:21:14;13.70;;;8.55;;
57824;SDS011;43912;44.188;21.094;2022-10-16T06:23:41;13.65;;;9.93;;
57824;SDS011;43912;44.188;21.094;2022-10-16T06:26:11;14.43;;;10.13;;
57824;SDS011;43912;44.188;21.094;2022-10-16T06:28:38;19.23;;;14.65;;
57824;SDS011;43912;44.188;21.094;2022-10-16T06:31:05;46.30;;;34.03;;
57824;SDS011;43912;44.188;21.094;2022-10-16T06:33:31;21.98;;;17.42;;
57824;SDS011;43912;44.188;21.094;2022-10-16T06:36:01;18.05;;;13.60;;
57824;SDS011;43912;44.188;21.094;2022-10-16T06:38:28;14.32;;;8.63;;
57824;SDS011;43912;44.188;21.094;2022-10-16T06:40:54;15.35;;;10.07;;
57824;SDS011;43912;44.188;21.094;2022-10-16T06:43:20;19.80;;;15.52;;
57824;SDS011;43912;44.188;21.094;2022-10-16T06:45:53;13.30;;;10.10;;
57824;SDS011;43912;44.188;21.094;2022-10-16T06:48:19;11.73;;;8.90;;
57824;SDS011;43912;44.188;21.094;2022-10-16T06:50:54;14.05;;;9.75;;
57824;SDS011;43912;44.188;21.094;2022-10-16T06:53:21;12.95;;;8.43;;
57824;SDS011;43912;44.188;21.094;2022-10-16T06:55:47;10.55;;;7.28;;
57824;SDS011;43912;44.188;21.094;2022-10-16T06:58:13;19.05;;;13.57;;
57824;SDS011;43912;44.188;21.094;2022-10-16T07:00:39;13.02;;;7.88;;
57824;SDS011;43912;44.188;21.094;2022-10-16T07:03:05;36.83;;;30.98;;
57824;SDS011;43912;44.188;21.094;2022-10-16T07:05:31;18.52;;;12.57;;
57824;SDS011;43912;44.188;21.094;2022-10-16T07:07:57;14.57;;;9.20;;
57824;SDS011;43912;44.188;21.094;2022-10-16T07:10:23;29.80;;;24.83;;
57824;SDS011;43912;44.188;21.094;2022-10-16T07:12:49;15.23;;;11.32;;
57824;SDS011;43912;44.188;21.094;2022-10-16T07:15:15;73.22;;;54.58;;
57824;SDS011;43912;44.188;21.094;2022-10-16T07:17:41;14.52;;;9.30;;
57824;SDS011;43912;44.188;21.094;2022-10-16T07:20:08;10.48;;;7.78;;
57824;SDS011;43912;44.188;21.094;2022-10-16T07:22:34;11.35;;;6.28;;
57824;SDS011;43912;44.188;21.094;2022-10-16T07:25:00;11.85;;;6.30;;
57824;SDS011;43912;44.188;21.094;2022-10-16T07:27:26;20.33;;;7.80;;
57824;SDS011;43912;44.188;21.094;2022-10-16T07:29:52;11.05;;;6.35;;
57824;SDS011;43912;44.188;21.094;2022-10-16T07:32:18;11.52;;;5.95;;
57824;SDS011;43912;44.188;21.094;2022-10-16T07:34:44;11.38;;;5.40;;
57824;SDS011;43912;44.188;21.094;2022-10-16T07:37:10;10.57;;;5.30;;
57824;SDS011;43912;44.188;21.094;2022-10-16T07:39:36;11.77;;;5.80;;
57824;SDS011;43912;44.188;21.094;2022-10-16T07:42:03;10.20;;;5.20;;
57824;SDS011;43912;44.188;21.094;2022-10-16T07:44:29;9.20;;;5.40;;
57824;SDS011;43912;44.188;21.094;2022-10-16T07:46:55;14.00;;;5.45;;
57824;SDS011;43912;44.188;21.094;2022-10-16T07:49:21;10.90;;;6.03;;
57824;SDS011;43912;44.188;21.094;2022-10-16T07:51:47;12.38;;;5.72;;
57824;SDS011;43912;44.188;21.094;2022-10-16T07:54:13;9.98;;;5.45;;
57824;SDS011;43912;44.188;21.094;2022-10-16T07:56:39;8.93;;;5.22;;
57824;SDS011;43912;44.188;21.094;2022-10-16T07:59:05;12.93;;;5.53;;
57824;SDS011;43912;44.188;21.094;2022-10-16T08:01:31;10.68;;;5.40;;
57824;SDS011;43912;44.188;21.094;2022-10-16T08:03:57;9.38;;;4.85;;
57824;SDS011;43912;44.188;21.094;2022-10-16T08:06:23;8.57;;;4.95;;
57824;SDS011;43912;44.188;21.094;2022-10-16T08:08:49;8.25;;;4.78;;
57824;SDS011;43912;44.188;21.094;2022-10-16T08:11:15;11.68;;;4.88;;
57824;SDS011;43912;44.188;21.094;2022-10-16T08:13:42;9.35;;;4.70;;
57824;SDS011;43912;44.188;21.094;2022-10-16T08:16:08;9.98;;;4.97;;
57824;SDS011;43912;44.188;21.094;2022-10-16T08:18:37;9.25;;;5.85;;
57824;SDS011;43912;44.188;21.094;2022-10-16T08:21:04;9.13;;;6.43;;
57824;SDS011;43912;44.188;21.094;2022-10-16T08:23:30;8.90;;;5.00;;
57824;SDS011;43912;44.188;21.094;2022-10-16T08:26:02;8.38;;;5.03;;
57824;SDS011;43912;44.188;21.094;2022-10-16T08:28:29;9.15;;;5.13;;
57824;SDS011;43912;44.188;21.094;2022-10-16T08:30:55;11.95;;;5.18;;
57824;SDS011;43912;44.188;21.094;2022-10-16T08:33:24;10.10;;;4.95;;
57824;SDS011;43912;44.188;21.094;2022-10-16T08:35:53;10.30;;;5.18;;
57824;SDS011;43912;44.188;21.094;2022-10-16T08:38:19;10.93;;;5.53;;
57824;SDS011;43912;44.188;21.094;2022-10-16T08:40:45;9.07;;;5.22;;
57824;SDS011;43912;44.188;21.094;2022-10-16T08:43:17;8.55;;;4.85;;
57824;SDS011;43912;44.188;21.094;2022-10-16T08:50:42;9.65;;;4.60;;
57824;SDS011;43912;44.188;21.094;2022-10-16T08:53:31;8.32;;;4.55;;
57824;SDS011;43912;44.188;21.094;2022-10-16T08:55:55;11.68;;;7.35;;
57824;SDS011;43912;44.188;21.094;2022-10-16T08:58:26;11.10;;;4.70;;
57824;SDS011;43912;44.188;21.094;2022-10-16T09:00:54;9.20;;;4.75;;
57824;SDS011;43912;44.188;21.094;2022-10-16T09:03:39;9.73;;;4.80;;
57824;SDS011;43912;44.188;21.094;2022-10-16T09:11:37;18.35;;;11.70;;
57824;SDS011;43912;44.188;21.094;2022-10-16T09:16:55;14.32;;;7.95;;
57824;SDS011;43912;44.188;21.094;2022-10-16T09:19:37;15.13;;;10.50;;
57824;SDS011;43912;44.188;21.094;2022-10-16T09:22:15;9.70;;;6.68;;
57824;SDS011;43912;44.188;21.094;2022-10-16T09:24:41;9.88;;;5.00;;
57824;SDS011;43912;44.188;21.094;2022-10-16T09:27:14;15.25;;;7.82;;
57824;SDS011;43912;44.188;21.094;2022-10-16T09:29:40;14.15;;;8.45;;
57824;SDS011;43912;44.188;21.094;2022-10-16T09:32:13;9.18;;;5.20;;
57824;SDS011;43912;44.188;21.094;2022-10-16T09:35:01;8.15;;;4.72;;
57824;SDS011;43912;44.188;21.094;2022-10-16T09:37:27;8.32;;;5.25;;
57824;SDS011;43912;44.188;21.094;2022-10-16T09:39:53;13.02;;;8.38;;
57824;SDS011;43912;44.188;21.094;2022-10-16T09:42:22;11.82;;;7.20;;
57824;SDS011;43912;44.188;21.094;2022-10-16T09:44:51;8.10;;;4.53;;
57824;SDS011;43912;44.188;21.094;2022-10-16T09:49:55;9.65;;;5.93;;
57824;SDS011;43912;44.188;21.094;2022-10-16T09:52:23;9.77;;;4.03;;
57824;SDS011;43912;44.188;21.094;2022-10-16T09:54:53;11.65;;;6.35;;
57824;SDS011;43912;44.188;21.094;2022-10-16T09:57:20;9.90;;;4.65;;
57824;SDS011;43912;44.188;21.094;2022-10-16T09:59:48;9.02;;;4.15;;
57824;SDS011;43912;44.188;21.094;2022-10-16T10:02:15;8.82;;;3.83;;
57824;SDS011;43912;44.188;21.094;2022-10-16T10:04:44;8.43;;;4.65;;
57824;SDS011;43912;44.188;21.094;2022-10-16T10:07:16;8.85;;;4.32;;
57824;SDS011;43912;44.188;21.094;2022-10-16T10:09:44;7.70;;;3.88;;
57824;SDS011;43912;44.188;21.094;2022-10-16T10:12:17;7.28;;;3.70;;
57824;SDS011;43912;44.188;21.094;2022-10-16T10:14:45;9.00;;;4.07;;
57824;SDS011;43912;44.188;21.094;2022-10-16T10:17:14;9.30;;;4.32;;
57824;SDS011;43912;44.188;21.094;2022-10-16T10:19:42;9.55;;;5.05;;
57824;SDS011;43912;44.188;21.094;2022-10-16T10:30:20;35.15;;;7.13;;
57824;SDS011;43912;44.188;21.094;2022-10-16T10:32:51;7.17;;;4.17;;
57824;SDS011;43912;44.188;21.094;2022-10-16T10:35:22;7.78;;;4.07;;
57824;SDS011;43912;44.188;21.094;2022-10-16T10:37:54;7.05;;;4.05;;
57824;SDS011;43912;44.188;21.094;2022-10-16T10:40:28;9.18;;;4.95;;
57824;SDS011;43912;44.188;21.094;2022-10-16T10:42:57;10.85;;;7.13;;
57824;SDS011;43912;44.188;21.094;2022-10-16T10:48:10;7.63;;;3.95;;
57824;SDS011;43912;44.188;21.094;2022-10-16T10:50:43;11.07;;;4.15;;
57824;SDS011;43912;44.188;21.094;2022-10-16T11:08:32;10.27;;;6.22;;
57824;SDS011;43912;44.188;21.094;2022-10-16T11:11:08;9.15;;;3.50;;
57824;SDS011;43912;44.188;21.094;2022-10-16T11:13:44;7.70;;;3.30;;
57824;SDS011;43912;44.188;21.094;2022-10-16T11:16:30;9.20;;;3.13;;
57824;SDS011;43912;44.188;21.094;2022-10-16T11:21:30;9.82;;;5.30;;
57824;SDS011;43912;44.188;21.094;2022-10-16T11:24:00;7.63;;;3.70;;
57824;SDS011;43912;44.188;21.094;2022-10-16T11:26:28;7.32;;;3.50;;
57824;SDS011;43912;44.188;21.094;2022-10-16T11:28:56;7.78;;;3.67;;
57824;SDS011;43912;44.188;21.094;2022-10-16T11:33:55;7.82;;;3.85;;
57824;SDS011;43912;44.188;21.094;2022-10-16T11:36:25;16.52;;;10.63;;
57824;SDS011;43912;44.188;21.094;2022-10-16T11:39:18;8.82;;;3.95;;
57824;SDS011;43912;44.188;21.094;2022-10-16T11:41:50;8.07;;;3.47;;
57824;SDS011;43912;44.188;21.094;2022-10-16T11:46:55;27.45;;;23.67;;
57824;SDS011;43912;44.188;21.094;2022-10-16T11:49:25;8.43;;;3.40;;
57824;SDS011;43912;44.188;21.094;2022-10-16T11:57:09;9.75;;;3.72;;
57824;SDS011;43912;44.188;21.094;2022-10-16T11:59:45;8.05;;;3.50;;
57824;SDS011;43912;44.188;21.094;2022-10-16T12:02:37;8.00;;;3.88;;
57824;SDS011;43912;44.188;21.094;2022-10-16T12:05:11;6.55;;;2.97;;
57824;SDS011;43912;44.188;21.094;2022-10-16T12:07:43;7.53;;;2.83;;
57824;SDS011;43912;44.188;21.094;2022-10-16T12:10:23;8.60;;;3.65;;
57824;SDS011;43912;44.188;21.094;2022-10-16T12:12:49;12.55;;;6.93;;
57824;SDS011;43912;44.188;21.094;2022-10-16T12:17:51;7.45;;;3.33;;
57824;SDS011;43912;44.188;21.094;2022-10-16T12:22:48;9.13;;;3.45;;
57824;SDS011;43912;44.188;21.094;2022-10-16T12:25:26;6.22;;;2.92;;
57824;SDS011;43912;44.188;21.094;2022-10-16T12:28:00;8.52;;;3.97;;
57824;SDS011;43912;44.188;21.094;2022-10-16T12:30:27;8.27;;;4.25;;
57824;SDS011;43912;44.188;21.094;2022-10-16T12:32:58;12.15;;;4.80;;
57824;SDS011;43912;44.188;21.094;2022-10-16T12:35:27;8.48;;;3.42;;
57824;SDS011;43912;44.188;21.094;2022-10-16T12:37:54;8.15;;;3.28;;
57824;SDS011;43912;44.188;21.094;2022-10-16T12:40:25;11.20;;;6.07;;
57824;SDS011;43912;44.188;21.094;2022-10-16T12:42:51;10.35;;;5.15;;
57824;SDS011;43912;44.188;21.094;2022-10-16T12:45:25;8.77;;;4.72;;
57824;SDS011;43912;44.188;21.094;2022-10-16T12:47:52;10.57;;;6.53;;
57824;SDS011;43912;44.188;21.094;2022-10-16T12:50:35;6.90;;;4.03;;
57824;SDS011;43912;44.188;21.094;2022-10-16T12:53:03;9.68;;;4.60;;
57824;SDS011;43912;44.188;21.094;2022-10-16T12:55:34;8.52;;;4.28;;
57824;SDS011;43912;44.188;21.094;2022-10-16T13:00:54;8.57;;;5.10;;
57824;SDS011;43912;44.188;21.094;2022-10-16T13:28:41;11.55;;;8.00;;
57824;SDS011;43912;44.188;21.094;2022-10-16T13:31:18;12.93;;;7.82;;
57824;SDS011;43912;44.188;21.094;2022-10-16T13:33:46;12.88;;;7.68;;
57824;SDS011;43912;44.188;21.094;2022-10-16T13:36:20;10.98;;;6.28;;
57824;SDS011;43912;44.188;21.094;2022-10-16T13:41:13;7.80;;;4.35;;
57824;SDS011;43912;44.188;21.094;2022-10-16T13:43:41;8.73;;;5.47;;
57824;SDS011;43912;44.188;21.094;2022-10-16T13:48:38;8.48;;;5.00;;
57824;SDS011;43912;44.188;21.094;2022-10-16T13:51:05;87.53;;;61.20;;
57824;SDS011;43912;44.188;21.094;2022-10-16T13:53:35;9.55;;;5.32;;
57824;SDS011;43912;44.188;21.094;2022-10-16T13:56:02;10.13;;;4.70;;
57824;SDS011;43912;44.188;21.094;2022-10-16T13:58:29;10.43;;;4.57;;
57824;SDS011;43912;44.188;21.094;2022-10-16T14:00:56;10.20;;;5.20;;
57824;SDS011;43912;44.188;21.094;2022-10-16T14:03:22;8.05;;;4.40;;
57824;SDS011;43912;44.188;21.094;2022-10-16T14:05:53;10.40;;;4.57;;
57824;SDS011;43912;44.188;21.094;2022-10-16T14:08:20;7.70;;;4.07;;
57824;SDS011;43912;44.188;21.094;2022-10-16T14:10:50;8.25;;;3.90;;
57824;SDS011;43912;44.188;21.094;2022-10-16T14:13:17;11.18;;;9.63;;
57824;SDS011;43912;44.188;21.094;2022-10-16T14:15:49;10.82;;;4.70;;
57824;SDS011;43912;44.188;21.094;2022-10-16T14:18:18;12.25;;;6.50;;
57824;SDS011;43912;44.188;21.094;2022-10-16T14:20:44;8.85;;;5.03;;
57824;SDS011;43912;44.188;21.094;2022-10-16T14:23:21;10.60;;;5.03;;
57824;SDS011;43912;44.188;21.094;2022-10-16T14:25:47;11.80;;;5.05;;
57824;SDS011;43912;44.188;21.094;2022-10-16T14:28:21;10.73;;;6.75;;
57824;SDS011;43912;44.188;21.094;2022-10-16T14:30:54;11.25;;;5.97;;
57824;SDS011;43912;44.188;21.094;2022-10-16T14:33:25;13.10;;;6.88;;
57824;SDS011;43912;44.188;21.094;2022-10-16T14:36:00;8.93;;;5.15;;
57824;SDS011;43912;44.188;21.094;2022-10-16T14:38:26;9.00;;;5.47;;
57824;SDS011;43912;44.188;21.094;2022-10-16T14:40:52;10.20;;;5.10;;
57824;SDS011;43912;44.188;21.094;2022-10-16T14:43:40;9.77;;;5.80;;
57824;SDS011;43912;44.188;21.094;2022-10-16T14:46:12;10.00;;;6.47;;
57824;SDS011;43912;44.188;21.094;2022-10-16T14:48:42;12.48;;;5.60;;
57824;SDS011;43912;44.188;21.094;2022-10-16T14:51:13;9.90;;;7.43;;
57824;SDS011;43912;44.188;21.094;2022-10-16T14:53:39;11.82;;;8.27;;
57824;SDS011;43912;44.188;21.094;2022-10-16T14:56:09;8.32;;;5.57;;
57824;SDS011;43912;44.188;21.094;2022-10-16T14:58:40;11.20;;;6.03;;
57824;SDS011;43912;44.188;21.094;2022-10-16T15:01:07;9.60;;;6.00;;
57824;SDS011;43912;44.188;21.094;2022-10-16T15:03:33;13.50;;;8.32;;
57824;SDS011;43912;44.188;21.094;2022-10-16T15:05:59;11.50;;;6.10;;
57824;SDS011;43912;44.188;21.094;2022-10-16T15:08:25;13.88;;;7.20;;
57824;SDS011;43912;44.188;21.094;2022-10-16T15:10:51;15.85;;;10.75;;
57824;SDS011;43912;44.188;21.094;2022-10-16T15:13:18;21.30;;;13.48;;
57824;SDS011;43912;44.188;21.094;2022-10-16T15:15:44;47.72;;;33.38;;
57824;SDS011;43912;44.188;21.094;2022-10-16T15:18:11;36.10;;;27.13;;
57824;SDS011;43912;44.188;21.094;2022-10-16T15:20:39;40.25;;;31.70;;
57824;SDS011;43912;44.188;21.094;2022-10-16T15:23:38;52.13;;;46.42;;
57824;SDS011;43912;44.188;21.094;2022-10-16T15:25:57;103.88;;;68.55;;
57824;SDS011;43912;44.188;21.094;2022-10-16T15:28:24;37.05;;;31.80;;
57824;SDS011;43912;44.188;21.094;2022-10-16T15:30:54;26.17;;;22.08;;
57824;SDS011;43912;44.188;21.094;2022-10-16T15:33:22;30.15;;;26.67;;
57824;SDS011;43912;44.188;21.094;2022-10-16T15:35:50;22.48;;;13.85;;
57824;SDS011;43912;44.188;21.094;2022-10-16T15:38:17;21.52;;;11.98;;
57824;SDS011;43912;44.188;21.094;2022-10-16T15:40:43;33.22;;;22.88;;
57824;SDS011;43912;44.188;21.094;2022-10-16T15:43:09;45.03;;;34.05;;
57824;SDS011;43912;44.188;21.094;2022-10-16T15:45:36;26.83;;;18.42;;
57824;SDS011;43912;44.188;21.094;2022-10-16T15:48:02;23.30;;;14.63;;
57824;SDS011;43912;44.188;21.094;2022-10-16T15:50:29;20.38;;;14.43;;
57824;SDS011;43912;44.188;21.094;2022-10-16T15:52:55;20.30;;;14.13;;
57824;SDS011;43912;44.188;21.094;2022-10-16T15:55:22;22.50;;;13.63;;
57824;SDS011;43912;44.188;21.094;2022-10-16T15:57:48;26.85;;;13.43;;
57824;SDS011;43912;44.188;21.094;2022-10-16T16:00:15;49.05;;;34.22;;
57824;SDS011;43912;44.188;21.094;2022-10-16T16:02:42;66.57;;;43.47;;
57824;SDS011;43912;44.188;21.094;2022-10-16T16:05:09;61.63;;;42.65;;
57824;SDS011;43912;44.188;21.094;2022-10-16T16:07:36;97.25;;;71.90;;
57824;SDS011;43912;44.188;21.094;2022-10-16T16:10:04;49.33;;;31.45;;
57824;SDS011;43912;44.188;21.094;2022-10-16T16:12:30;39.78;;;27.45;;
57824;SDS011;43912;44.188;21.094;2022-10-16T16:14:56;38.67;;;24.58;;
57824;SDS011;43912;44.188;21.094;2022-10-16T16:17:22;89.72;;;63.60;;
57824;SDS011;43912;44.188;21.094;2022-10-16T16:19:49;60.70;;;43.75;;
57824;SDS011;43912;44.188;21.094;2022-10-16T16:22:15;108.47;;;84.30;;
57824;SDS011;43912;44.188;21.094;2022-10-16T16:24:41;344.38;;;268.45;;
57824;SDS011;43912;44.188;21.094;2022-10-16T16:27:07;241.20;;;184.02;;